createdAt,value
2019-04-30T00:02:18.621Z,47.07
2019-04-30T00:04:50.813Z,45.90
2019-04-30T00:07:20.334Z,47.17
2019-04-30T00:09:54.044Z,48.97
2019-04-30T00:12:21.707Z,47.27
2019-04-30T00:14:51.251Z,49.03
2019-04-30T00:17:22.331Z,48.47
2019-04-30T00:19:58.253Z,49.77
2019-04-30T00:22:33.314Z,50.33
2019-04-30T00:24:55.600Z,49.87
2019-04-30T00:27:30.064Z,46.67
2019-04-30T00:30:00.403Z,47.80
2019-04-30T00:32:28.457Z,47.43
2019-04-30T00:34:58.008Z,47.77
2019-04-30T00:37:27.514Z,48.87
2019-04-30T00:39:56.981Z,48.60
2019-04-30T00:42:28.677Z,46.47
2019-04-30T00:44:59.715Z,47.40
2019-04-30T00:47:29.789Z,49.07
2019-04-30T00:50:00.379Z,48.47
2019-04-30T00:52:33.993Z,47.97
2019-04-30T00:55:05.536Z,47.97
2019-04-30T00:57:32.299Z,49.53
2019-04-30T01:00:01.772Z,49.20
2019-04-30T01:02:50.551Z,50.33
2019-04-30T01:05:21.734Z,49.50
2019-04-30T01:07:51.884Z,47.53
2019-04-30T01:10:24.867Z,50.37
2019-04-30T01:12:52.610Z,49.87
2019-04-30T01:15:22.086Z,50.10
2019-04-30T01:17:53.991Z,52.43
2019-04-30T01:20:31.401Z,50.67
2019-04-30T01:22:56.345Z,49.67
2019-04-30T01:25:25.956Z,49.40
2019-04-30T01:27:55.477Z,47.13
2019-04-30T01:30:24.949Z,49.27
2019-04-30T01:32:56.786Z,47.03
2019-04-30T01:35:30.937Z,48.23
2019-04-30T01:37:56.649Z,49.90
2019-04-30T01:40:26.123Z,47.57
2019-04-30T01:42:55.574Z,46.83
2019-04-30T01:45:28.216Z,46.03
2019-04-30T01:48:00.674Z,49.23
2019-04-30T01:50:29.138Z,50.40
2019-04-30T01:52:59.067Z,47.73
2019-04-30T01:55:36.236Z,47.83
2019-04-30T01:58:25.381Z,47.53
2019-04-30T02:00:56.490Z,44.57
2019-04-30T02:03:26.013Z,48.40
2019-04-30T02:05:55.561Z,48.03
2019-04-30T02:08:25.073Z,50.00
2019-04-30T02:10:55.622Z,46.33
2019-04-30T02:13:25.068Z,47.10
2019-04-30T02:15:54.534Z,48.53
2019-04-30T02:18:23.981Z,48.47
2019-04-30T02:20:53.445Z,47.70
2019-04-30T02:23:23.969Z,44.50
2019-04-30T02:25:53.442Z,44.27
2019-04-30T02:28:22.893Z,47.73
2019-04-30T02:30:52.366Z,43.73
2019-04-30T02:33:21.830Z,44.97
2019-04-30T02:35:52.933Z,45.20
2019-04-30T02:38:24.027Z,43.63
2019-04-30T02:40:53.742Z,49.13
2019-04-30T02:43:25.533Z,44.53
2019-04-30T02:45:56.758Z,43.60
2019-04-30T02:48:29.466Z,43.40
2019-04-30T02:51:01.187Z,44.90
2019-04-30T02:53:50.615Z,43.53
2019-04-30T02:56:26.049Z,42.27
2019-04-30T02:58:53.553Z,40.63
2019-04-30T03:01:24.115Z,41.97
2019-04-30T03:03:53.541Z,41.47
2019-04-30T03:06:23.713Z,39.90
2019-04-30T03:08:53.373Z,40.97
2019-04-30T03:11:22.853Z,42.10
2019-04-30T03:13:52.298Z,41.57
2019-04-30T03:16:23.406Z,41.67
2019-04-30T03:18:54.490Z,40.73
2019-04-30T03:21:43.468Z,41.90
2019-04-30T03:24:12.923Z,42.50
2019-04-30T03:26:42.389Z,41.00
2019-04-30T03:29:11.839Z,42.53
2019-04-30T03:31:43.771Z,44.27
2019-04-30T03:34:17.981Z,41.47
2019-04-30T03:36:43.475Z,45.57
2019-04-30T03:39:12.925Z,42.30
2019-04-30T03:41:42.407Z,43.20
2019-04-30T03:44:21.388Z,43.43
2019-04-30T03:46:42.950Z,39.50
2019-04-30T03:49:13.298Z,41.00
2019-04-30T03:51:43.068Z,41.07
2019-04-30T03:54:13.491Z,40.83
2019-04-30T03:56:43.639Z,44.37
2019-04-30T03:59:13.099Z,41.03
2019-04-30T04:01:49.619Z,43.90
2019-04-30T04:04:30.784Z,41.13
2019-04-30T04:07:13.378Z,42.87
2019-04-30T04:09:53.640Z,41.53
2019-04-30T04:12:29.941Z,42.03
2019-04-30T04:15:03.277Z,39.90
2019-04-30T04:17:31.502Z,43.13
2019-04-30T04:20:00.062Z,41.40
2019-04-30T04:22:30.694Z,40.23
2019-04-30T04:25:00.446Z,40.40
2019-04-30T04:27:30.466Z,42.20
2019-04-30T04:30:01.212Z,42.20
2019-04-30T04:32:32.109Z,42.30
2019-04-30T04:35:01.564Z,44.13
2019-04-30T04:37:31.048Z,43.63
2019-04-30T04:40:00.500Z,41.90
2019-04-30T04:42:32.870Z,43.47
2019-04-30T04:45:01.053Z,44.23
2019-04-30T04:47:31.126Z,39.87
2019-04-30T04:50:00.984Z,38.17
2019-04-30T04:52:31.560Z,39.73
2019-04-30T04:55:01.287Z,38.57
2019-04-30T04:57:30.847Z,37.83
2019-04-30T05:00:06.788Z,38.53
2019-04-30T05:02:39.674Z,38.67
2019-04-30T05:05:09.634Z,40.40
2019-04-30T05:07:39.897Z,39.73
2019-04-30T05:10:10.016Z,41.47
2019-04-30T05:12:39.906Z,42.60
2019-04-30T05:15:11.038Z,39.00
2019-04-30T05:17:40.504Z,37.73
2019-04-30T05:20:10.793Z,40.60
2019-04-30T05:22:40.262Z,39.27
2019-04-30T05:25:09.774Z,41.17
2019-04-30T05:27:39.432Z,39.40
2019-04-30T05:30:12.175Z,39.33
2019-04-30T05:32:41.490Z,39.10
2019-04-30T05:35:11.018Z,38.43
2019-04-30T05:37:40.556Z,40.07
2019-04-30T05:40:10.341Z,39.07
2019-04-30T05:42:39.804Z,40.10
2019-04-30T05:45:09.609Z,39.60
2019-04-30T05:47:39.122Z,40.40
2019-04-30T05:50:09.187Z,40.47
2019-04-30T05:52:39.777Z,33.90
2019-04-30T05:55:11.671Z,37.23
2019-04-30T05:57:53.094Z,38.50
2019-04-30T06:00:12.445Z,36.63
2019-04-30T06:02:42.049Z,36.80
2019-04-30T06:05:11.566Z,38.57
2019-04-30T06:07:41.033Z,37.17
2019-04-30T06:10:19.285Z,39.70
2019-04-30T06:12:51.555Z,39.10
2019-04-30T06:15:31.532Z,41.23
2019-04-30T06:18:10.556Z,39.97
2019-04-30T06:20:32.206Z,42.77
2019-04-30T06:23:01.677Z,40.60
2019-04-30T06:25:45.552Z,42.27
2019-04-30T06:28:02.890Z,42.37
2019-04-30T06:30:32.586Z,44.20
2019-04-30T06:33:02.495Z,42.43
2019-04-30T06:35:32.273Z,43.80
2019-04-30T06:38:01.741Z,42.60
2019-04-30T06:40:31.189Z,43.60
2019-04-30T06:43:01.025Z,40.23
2019-04-30T06:45:32.686Z,39.03
2019-04-30T06:48:04.089Z,41.03
2019-04-30T06:50:33.525Z,40.07
2019-04-30T06:53:02.998Z,41.30
2019-04-30T06:55:32.437Z,42.90
2019-04-30T06:58:12.083Z,40.37
2019-04-30T07:00:40.190Z,43.93
2019-04-30T07:03:09.733Z,40.73
2019-04-30T07:05:39.447Z,40.23
2019-04-30T07:08:37.353Z,40.73
2019-04-30T07:11:16.947Z,42.53
2019-04-30T07:13:49.543Z,42.57
2019-04-30T07:16:19.312Z,41.40
2019-04-30T07:18:49.025Z,41.27
2019-04-30T07:21:19.826Z,40.50
2019-04-30T07:23:50.537Z,38.17
2019-04-30T07:26:24.381Z,37.17
2019-04-30T07:28:54.803Z,37.43
2019-04-30T07:31:22.150Z,35.90
2019-04-30T07:33:54.013Z,37.57
2019-04-30T07:36:22.853Z,35.30
2019-04-30T07:38:56.331Z,37.67
2019-04-30T07:41:23.389Z,37.47
2019-04-30T07:43:52.858Z,38.87
2019-04-30T07:46:22.319Z,35.50
2019-04-30T07:48:51.790Z,36.37
2019-04-30T07:51:22.030Z,33.73
2019-04-30T07:53:52.216Z,34.73
2019-04-30T07:56:27.872Z,35.63
2019-04-30T07:58:52.757Z,34.70
2019-04-30T08:01:22.210Z,34.93
2019-04-30T08:03:53.620Z,34.17
2019-04-30T08:06:23.439Z,31.63
2019-04-30T08:08:57.196Z,32.67
2019-04-30T08:11:26.453Z,32.53
2019-04-30T08:13:55.085Z,32.23
2019-04-30T08:16:38.540Z,31.73
2019-04-30T08:19:09.133Z,32.50
2019-04-30T08:21:38.835Z,31.73
2019-04-30T08:24:09.291Z,33.53
2019-04-30T08:26:39.787Z,34.13
2019-04-30T08:29:09.705Z,31.73
2019-04-30T08:31:40.953Z,31.63
2019-04-30T08:34:10.926Z,30.27
2019-04-30T08:36:40.537Z,31.13
2019-04-30T08:39:10.085Z,28.97
2019-04-30T08:41:39.538Z,29.47
2019-04-30T08:44:09.490Z,30.03
2019-04-30T08:46:38.994Z,30.20
2019-04-30T08:49:09.735Z,30.27
2019-04-30T08:51:40.051Z,30.23
2019-04-30T08:54:09.896Z,31.33
2019-04-30T08:56:39.370Z,30.67
2019-04-30T08:59:11.117Z,32.07
2019-04-30T09:01:39.931Z,31.30
2019-04-30T09:04:10.473Z,33.13
2019-04-30T09:06:40.184Z,29.47
2019-04-30T09:09:12.482Z,31.03
2019-04-30T09:11:51.791Z,29.67
2019-04-30T09:14:13.030Z,30.73
2019-04-30T09:16:42.523Z,31.47
2019-04-30T09:19:13.579Z,30.67
2019-04-30T09:21:43.050Z,30.40
2019-04-30T09:24:12.516Z,32.17
2019-04-30T09:26:41.987Z,31.40
2019-04-30T09:29:11.437Z,31.70
2019-04-30T09:31:41.069Z,29.67
2019-04-30T09:34:17.029Z,28.83
2019-04-30T09:36:41.675Z,29.07
2019-04-30T09:39:11.126Z,29.10
2019-04-30T09:41:41.114Z,28.10
2019-04-30T09:44:10.752Z,29.90
2019-04-30T09:46:40.222Z,28.47
2019-04-30T09:49:09.756Z,27.50
2019-04-30T09:51:39.988Z,29.80
2019-04-30T09:54:12.376Z,27.57
2019-04-30T09:56:40.870Z,28.07
2019-04-30T09:59:10.317Z,27.60
2019-04-30T10:01:39.861Z,31.87
2019-04-30T10:04:10.345Z,31.23
2019-04-30T10:06:40.450Z,29.00
2019-04-30T10:09:11.545Z,29.30
2019-04-30T10:11:45.314Z,28.57
2019-04-30T10:14:15.939Z,29.90
2019-04-30T10:16:47.118Z,28.60
2019-04-30T10:19:16.575Z,28.47
2019-04-30T10:21:46.049Z,27.60
2019-04-30T10:24:15.915Z,30.00
2019-04-30T10:26:45.478Z,27.60
2019-04-30T10:29:16.127Z,25.00
2019-04-30T10:31:45.573Z,27.37
2019-04-30T10:34:15.038Z,28.70
2019-04-30T10:36:44.650Z,27.40
2019-04-30T10:39:14.179Z,27.13
2019-04-30T10:41:43.645Z,26.40
2019-04-30T10:44:13.097Z,29.60
2019-04-30T10:46:42.665Z,27.10
2019-04-30T10:49:12.303Z,27.63
2019-04-30T10:51:41.756Z,28.50
2019-04-30T10:54:23.215Z,27.67
2019-04-30T10:56:42.378Z,27.10
2019-04-30T10:59:11.821Z,24.23
2019-04-30T11:01:41.297Z,25.10
2019-04-30T11:04:10.939Z,25.10
2019-04-30T11:06:40.405Z,23.53
2019-04-30T11:09:09.858Z,25.07
2019-04-30T11:11:39.787Z,24.80
2019-04-30T11:14:09.426Z,26.80
2019-04-30T11:16:38.972Z,25.27
2019-04-30T11:19:09.430Z,24.13
2019-04-30T11:21:39.325Z,26.87
2019-04-30T11:24:09.355Z,23.77
2019-04-30T11:26:40.346Z,22.83
2019-04-30T11:29:10.361Z,23.97
2019-04-30T11:31:50.816Z,22.13
2019-04-30T11:34:20.425Z,21.70
2019-04-30T11:36:49.894Z,21.63
2019-04-30T11:39:19.714Z,19.50
2019-04-30T11:41:49.259Z,20.83
2019-04-30T11:44:30.380Z,22.00
2019-04-30T11:46:59.942Z,21.00
2019-04-30T11:49:29.463Z,21.80
2019-04-30T11:51:58.941Z,17.23
2019-04-30T11:54:29.840Z,15.67
2019-04-30T11:56:59.488Z,19.53
2019-04-30T11:59:29.771Z,17.37
2019-04-30T12:02:01.133Z,13.77
2019-04-30T12:04:31.654Z,13.73
2019-04-30T12:07:02.761Z,14.73
2019-04-30T12:09:50.130Z,15.87
2019-04-30T12:12:19.606Z,15.88
2019-04-30T12:14:49.475Z,17.07
2019-04-30T12:17:19.130Z,13.93
2019-04-30T12:19:48.927Z,13.37
2019-04-30T12:22:20.224Z,13.67
2019-04-30T12:25:02.265Z,15.23
2019-04-30T12:27:21.758Z,14.58
2019-04-30T12:29:51.210Z,15.10
2019-04-30T12:32:21.409Z,16.52
2019-04-30T12:34:50.938Z,14.87
2019-04-30T12:37:20.410Z,13.98
2019-04-30T12:39:49.871Z,13.48
2019-04-30T12:42:19.338Z,15.20
2019-04-30T12:44:49.591Z,13.80
2019-04-30T12:47:21.745Z,13.25
2019-04-30T12:50:09.578Z,11.73
2019-04-30T12:52:40.861Z,11.12
2019-04-30T12:55:22.591Z,12.60
2019-04-30T12:57:58.721Z,14.30
2019-04-30T13:00:24.977Z,13.30
2019-04-30T13:02:54.479Z,12.37
2019-04-30T13:05:24.002Z,11.53
2019-04-30T13:07:55.047Z,12.70
2019-04-30T13:10:25.285Z,13.48
2019-04-30T13:12:55.379Z,14.47
2019-04-30T13:15:25.275Z,14.78
2019-04-30T13:17:54.749Z,13.72
2019-04-30T13:20:24.454Z,13.75
2019-04-30T13:22:54.072Z,13.83
2019-04-30T13:25:33.907Z,14.53
2019-04-30T13:28:02.302Z,15.63
2019-04-30T13:30:32.389Z,14.73
2019-04-30T13:33:03.509Z,14.13
2019-04-30T13:35:33.333Z,14.03
2019-04-30T13:38:04.446Z,14.28
2019-04-30T13:40:35.608Z,13.85
2019-04-30T13:43:06.785Z,14.07
2019-04-30T13:45:36.242Z,14.38
2019-04-30T13:48:05.801Z,14.68
2019-04-30T13:50:35.254Z,15.13
2019-04-30T13:53:04.866Z,15.45
2019-04-30T13:55:43.632Z,13.95
2019-04-30T13:58:05.413Z,14.43
2019-04-30T14:00:34.934Z,13.55
2019-04-30T14:03:06.185Z,14.05
2019-04-30T14:05:35.706Z,13.08
2019-04-30T14:08:09.619Z,14.45
2019-04-30T14:10:40.647Z,13.72
2019-04-30T14:13:10.186Z,15.18
2019-04-30T14:15:39.881Z,14.45
2019-04-30T14:18:09.496Z,13.90
2019-04-30T14:20:38.951Z,13.75
2019-04-30T14:23:08.588Z,13.50
2019-04-30T14:25:39.569Z,13.22
2019-04-30T14:28:09.514Z,15.00
2019-04-30T14:30:39.360Z,14.07
2019-04-30T14:33:09.902Z,14.68
2019-04-30T14:35:39.378Z,12.60
2019-04-30T14:38:09.155Z,13.93
2019-04-30T14:40:40.435Z,15.43
2019-04-30T14:43:14.599Z,13.78
2019-04-30T14:46:03.323Z,13.78
2019-04-30T14:48:41.296Z,13.28
2019-04-30T14:51:11.358Z,13.22
2019-04-30T14:53:54.706Z,13.22
2019-04-30T14:56:25.869Z,14.43
2019-04-30T14:59:08.569Z,14.00
2019-04-30T15:01:55.037Z,14.78
2019-04-30T15:04:24.526Z,14.20
2019-04-30T15:06:53.972Z,14.23
2019-04-30T15:09:23.513Z,13.88
2019-04-30T15:11:53.037Z,14.23
2019-04-30T15:14:24.450Z,14.10
2019-04-30T15:16:53.908Z,13.72
2019-04-30T15:19:23.373Z,14.95
2019-04-30T15:21:52.821Z,14.38
2019-04-30T15:24:23.938Z,14.68
2019-04-30T15:26:57.586Z,15.60
2019-04-30T15:29:24.566Z,15.10
2019-04-30T15:31:54.085Z,15.30
2019-04-30T15:34:23.557Z,15.72
2019-04-30T15:36:53.010Z,15.43
2019-04-30T15:39:24.126Z,15.32
2019-04-30T15:41:53.581Z,16.17
2019-04-30T15:44:23.062Z,15.78
2019-04-30T15:46:52.581Z,15.48
2019-04-30T15:49:22.125Z,16.97
2019-04-30T15:51:51.569Z,16.40
2019-04-30T15:54:21.223Z,17.45
2019-04-30T15:56:50.605Z,16.77
2019-04-30T15:59:28.969Z,17.85
2019-04-30T16:02:02.873Z,16.82
2019-04-30T16:04:38.446Z,16.25
2019-04-30T16:07:09.121Z,16.50
2019-04-30T16:09:40.673Z,16.93
2019-04-30T16:12:20.051Z,15.75
2019-04-30T16:14:48.946Z,17.45
2019-04-30T16:17:20.717Z,17.82
2019-04-30T16:19:50.293Z,16.97
2019-04-30T16:22:20.892Z,16.12
2019-04-30T16:24:50.404Z,16.10
2019-04-30T16:27:19.923Z,17.07
2019-04-30T16:29:49.949Z,17.27
2019-04-30T16:32:20.385Z,16.32
2019-04-30T16:34:50.024Z,18.00
2019-04-30T16:37:20.215Z,17.15
2019-04-30T16:39:49.886Z,16.85
2019-04-30T16:42:19.335Z,18.27
2019-04-30T16:44:48.809Z,17.70
2019-04-30T16:47:19.929Z,17.10
2019-04-30T16:49:49.510Z,17.37
2019-04-30T16:52:19.103Z,18.62
2019-04-30T16:54:49.715Z,17.62
2019-04-30T16:57:19.373Z,16.57
2019-04-30T16:59:49.949Z,17.95
2019-04-30T17:02:21.091Z,18.32
2019-04-30T17:04:54.893Z,19.20
2019-04-30T17:07:28.886Z,20.65
2019-04-30T17:09:59.834Z,19.07
2019-04-30T17:12:38.655Z,20.45
2019-04-30T17:15:15.877Z,18.62
2019-04-30T17:17:45.322Z,18.85
2019-04-30T17:20:14.940Z,20.25
2019-04-30T17:22:44.388Z,21.57
2019-04-30T17:25:14.003Z,19.92
2019-04-30T17:27:43.449Z,21.05
2019-04-30T17:30:13.634Z,21.17
2019-04-30T17:32:43.081Z,20.10
2019-04-30T17:35:12.696Z,20.62
2019-04-30T17:37:42.245Z,19.92
2019-04-30T17:40:12.188Z,19.32
2019-04-30T17:42:41.651Z,19.32
2019-04-30T17:45:11.609Z,18.92
2019-04-30T17:47:41.093Z,21.55
2019-04-30T17:50:11.382Z,19.85
2019-04-30T17:52:40.861Z,20.03
2019-04-30T17:55:10.461Z,20.43
2019-04-30T17:57:40.393Z,21.47
2019-04-30T18:00:18.754Z,20.87
2019-04-30T18:02:43.317Z,20.03
2019-04-30T18:05:13.005Z,19.30
2019-04-30T18:07:42.985Z,21.63
2019-04-30T18:10:14.720Z,20.53
2019-04-30T18:12:44.261Z,20.17
2019-04-30T18:15:16.189Z,20.97
2019-04-30T18:17:47.310Z,20.70
2019-04-30T18:20:19.182Z,20.97
2019-04-30T18:22:50.439Z,20.47
2019-04-30T18:25:21.529Z,20.70
2019-04-30T18:28:01.193Z,20.07
2019-04-30T18:30:32.281Z,20.10
2019-04-30T18:33:01.826Z,20.67
2019-04-30T18:35:31.345Z,20.23
2019-04-30T18:38:00.829Z,19.60
2019-04-30T18:40:30.494Z,20.67
2019-04-30T18:43:00.044Z,21.67
2019-04-30T18:45:29.774Z,20.60
2019-04-30T18:47:59.484Z,20.23
2019-04-30T18:50:30.397Z,20.80
2019-04-30T18:53:01.509Z,21.33
2019-04-30T18:55:31.037Z,22.07
2019-04-30T18:58:01.464Z,21.83
2019-04-30T19:00:32.778Z,22.07
2019-04-30T19:03:02.251Z,23.47
2019-04-30T19:05:31.703Z,22.90
2019-04-30T19:08:15.092Z,23.00
2019-04-30T19:11:02.634Z,22.20
2019-04-30T19:13:36.747Z,21.73
2019-04-30T19:16:26.033Z,23.43
2019-04-30T19:19:00.995Z,24.40
2019-04-30T19:21:30.534Z,24.47
2019-04-30T19:24:00.009Z,22.80
2019-04-30T19:26:29.533Z,25.13
2019-04-30T19:28:59.009Z,23.57
2019-04-30T19:31:29.628Z,24.70
2019-04-30T19:34:00.321Z,23.63
2019-04-30T19:36:37.352Z,25.20
2019-04-30T19:39:00.872Z,25.80
2019-04-30T19:41:31.929Z,24.07
2019-04-30T19:44:01.424Z,24.47
2019-04-30T19:46:30.939Z,23.00
2019-04-30T19:49:00.409Z,25.17
2019-04-30T19:51:29.863Z,24.37
2019-04-30T19:53:59.848Z,25.17
2019-04-30T19:56:32.759Z,24.37
2019-04-30T19:59:05.288Z,26.33
2019-04-30T20:01:32.622Z,25.60
2019-04-30T20:04:02.094Z,25.20
2019-04-30T20:06:32.613Z,25.67
2019-04-30T20:09:02.098Z,25.33
2019-04-30T20:11:33.160Z,25.70
2019-04-30T20:14:03.877Z,25.27
2019-04-30T20:16:35.826Z,25.33
2019-04-30T20:19:04.561Z,24.53
2019-04-30T20:21:45.833Z,23.80
2019-04-30T20:24:06.358Z,23.73
2019-04-30T20:26:35.810Z,22.83
2019-04-30T20:29:05.289Z,24.00
2019-04-30T20:31:34.742Z,23.33
2019-04-30T20:34:04.357Z,22.83
2019-04-30T20:36:33.815Z,22.23
2019-04-30T20:39:07.978Z,22.97
2019-04-30T20:41:39.610Z,21.47
2019-04-30T20:44:10.560Z,22.07
2019-04-30T20:46:40.130Z,20.90
2019-04-30T20:49:09.607Z,21.10
2019-04-30T20:51:52.027Z,21.10
2019-04-30T20:54:10.157Z,21.53
2019-04-30T20:56:39.601Z,21.47
2019-04-30T20:59:10.779Z,23.07
2019-04-30T21:01:40.149Z,22.00
2019-04-30T21:04:09.636Z,23.60
2019-04-30T21:06:39.537Z,22.60
2019-04-30T21:09:09.229Z,25.33
2019-04-30T21:11:40.476Z,25.63
2019-04-30T21:14:10.129Z,24.60
2019-04-30T21:16:39.586Z,27.23
2019-04-30T21:19:09.064Z,28.27
2019-04-30T21:21:38.763Z,27.37
2019-04-30T21:24:08.300Z,26.97
2019-04-30T21:26:37.758Z,27.00
2019-04-30T21:29:13.303Z,28.17
2019-04-30T21:31:55.279Z,27.50
2019-04-30T21:34:26.381Z,27.83
2019-04-30T21:36:55.840Z,26.30
2019-04-30T21:39:25.318Z,26.67
2019-04-30T21:41:54.762Z,28.17
2019-04-30T21:44:24.242Z,28.27
2019-04-30T21:46:53.693Z,27.53
2019-04-30T21:49:23.166Z,28.70
2019-04-30T21:51:52.630Z,28.50
2019-04-30T21:54:22.097Z,29.93
2019-04-30T21:56:51.549Z,29.97
2019-04-30T21:59:24.425Z,28.67
2019-04-30T22:01:53.173Z,28.43
2019-04-30T22:04:22.725Z,30.03
2019-04-30T22:06:52.179Z,28.60
2019-04-30T22:09:21.994Z,30.63
2019-04-30T22:11:51.523Z,28.87
2019-04-30T22:14:20.990Z,29.57
2019-04-30T22:16:50.451Z,28.97
2019-04-30T22:19:19.926Z,30.63
2019-04-30T22:21:49.647Z,30.27
2019-04-30T22:24:19.246Z,31.33
2019-04-30T22:26:48.701Z,31.67
2019-04-30T22:29:19.139Z,34.97
2019-04-30T22:31:49.487Z,32.37
2019-04-30T22:34:19.106Z,32.87
2019-04-30T22:36:49.467Z,34.07
2019-04-30T22:39:20.654Z,35.73
2019-04-30T22:41:50.110Z,34.40
2019-04-30T22:44:19.582Z,34.47
2019-04-30T22:46:49.270Z,36.27
2019-04-30T22:49:18.809Z,35.10
2019-04-30T22:51:48.314Z,34.17
2019-04-30T22:54:17.791Z,35.50
2019-04-30T22:56:47.245Z,35.67
2019-04-30T22:59:16.742Z,36.33
2019-04-30T23:01:54.650Z,34.57
2019-04-30T23:04:26.948Z,34.30
2019-04-30T23:06:56.398Z,38.23
2019-04-30T23:09:25.873Z,35.20
2019-04-30T23:11:55.325Z,38.23
2019-04-30T23:14:24.798Z,37.47
2019-04-30T23:16:55.306Z,38.40
2019-04-30T23:19:24.757Z,37.97
2019-04-30T23:21:54.397Z,39.10
2019-04-30T23:24:23.841Z,39.47
2019-04-30T23:26:53.305Z,41.10
2019-04-30T23:29:22.753Z,40.53
2019-04-30T23:31:52.222Z,40.53
2019-04-30T23:34:21.939Z,42.03
2019-04-30T23:36:51.415Z,41.40
2019-04-30T23:39:20.862Z,43.23
2019-04-30T23:41:50.330Z,42.17
2019-04-30T23:44:19.773Z,42.47
2019-04-30T23:46:49.238Z,42.47
2019-04-30T23:49:18.685Z,43.33
2019-04-30T23:51:50.417Z,42.17
2019-04-30T23:54:19.225Z,44.67
2019-04-30T23:56:48.762Z,44.63
2019-04-30T23:59:18.211Z,45.83
